sensor_id;sensor_type;location;lat;lon;timestamp;pressure;altitude;pressure_sealevel;temperature;humidity
36726;BME280;44936;52.086;5.150;2023-08-21T00:01:43;102613.91;;;18.22;100.00
36726;BME280;44936;52.086;5.150;2023-08-21T00:04:08;102611.25;;;18.19;100.00
36726;BME280;44936;52.086;5.150;2023-08-21T00:06:54;102605.06;;;18.20;100.00
36726;BME280;44936;52.086;5.150;2023-08-21T00:09:20;102613.00;;;18.28;100.00
36726;BME280;44936;52.086;5.150;2023-08-21T00:11:45;102578.50;;;18.20;100.00
36726;BME280;44936;52.086;5.150;2023-08-21T00:14:11;102618.31;;;18.43;100.00
36726;BME280;44936;52.086;5.150;2023-08-21T00:16:39;102578.50;;;18.20;100.00
36726;BME280;44936;52.086;5.150;2023-08-21T00:19:13;102563.44;;;18.19;100.00
36726;BME280;44936;52.086;5.150;2023-08-21T00:21:40;102560.81;;;18.07;100.00
36726;BME280;44936;52.086;5.150;2023-08-21T00:24:06;102585.59;;;18.15;100.00
36726;BME280;44936;52.086;5.150;2023-08-21T00:26:31;102582.94;;;18.04;100.00
36726;BME280;44936;52.086;5.150;2023-08-21T00:28:58;102629.84;;;18.18;100.00
36726;BME280;44936;52.086;5.150;2023-08-21T00:31:23;102664.38;;;18.22;100.00
36726;BME280;44936;52.086;5.150;2023-08-21T00:33:49;102664.38;;;18.30;100.00
36726;BME280;44936;52.086;5.150;2023-08-21T00:36:22;102623.66;;;18.32;100.00
36726;BME280;44936;52.086;5.150;2023-08-21T00:38:49;102586.47;;;18.22;100.00
36726;BME280;44936;52.086;5.150;2023-08-21T00:41:14;102574.06;;;18.24;100.00
36726;BME280;44936;52.086;5.150;2023-08-21T00:43:40;102603.28;;;18.40;100.00
36726;BME280;44936;52.086;5.150;2023-08-21T00:46:05;102564.34;;;18.17;100.00
36726;BME280;44936;52.086;5.150;2023-08-21T00:48:32;102595.28;;;18.36;100.00
36726;BME280;44936;52.086;5.150;2023-08-21T00:50:57;102559.00;;;18.33;100.00
36726;BME280;44936;52.086;5.150;2023-08-21T00:53:25;102536.88;;;18.25;100.00
36726;BME280;44936;52.086;5.150;2023-08-21T00:55:50;102551.94;;;18.25;100.00
36726;BME280;44936;52.086;5.150;2023-08-21T00:58:16;102587.31;;;18.36;100.00
36726;BME280;44936;52.086;5.150;2023-08-21T01:00:45;102552.81;;;18.18;100.00
36726;BME280;44936;52.086;5.150;2023-08-21T01:03:33;102602.38;;;18.40;100.00
36726;BME280;44936;52.086;5.150;2023-08-21T01:05:59;102583.81;;;18.32;100.00
36726;BME280;44936;52.086;5.150;2023-08-21T01:11:33;102581.16;;;18.32;100.00
36726;BME280;44936;52.086;5.150;2023-08-21T01:14:09;102570.53;;;18.29;100.00
36726;BME280;44936;52.086;5.150;2023-08-21T01:16:39;102548.41;;;18.06;100.00
36726;BME280;44936;52.086;5.150;2023-08-21T01:19:14;102564.38;;;18.03;100.00
36726;BME280;44936;52.086;5.150;2023-08-21T01:21:45;102547.53;;;18.04;100.00
36726;BME280;44936;52.086;5.150;2023-08-21T01:24:10;102561.69;;;18.06;100.00
36726;BME280;44936;52.086;5.150;2023-08-21T01:26:36;102539.56;;;17.92;100.00
36726;BME280;44936;52.086;5.150;2023-08-21T01:29:03;102567.88;;;18.09;100.00
36726;BME280;44936;52.086;5.150;2023-08-21T01:31:31;102543.09;;;18.07;100.00
36726;BME280;44936;52.086;5.150;2023-08-21T01:34:01;102522.75;;;18.11;100.00
36726;BME280;44936;52.086;5.150;2023-08-21T01:36:29;102497.97;;;18.03;100.00
36726;BME280;44936;52.086;5.150;2023-08-21T01:38:55;102500.63;;;18.04;100.00
36726;BME280;44936;52.086;5.150;2023-08-21T01:41:24;102482.91;;;18.02;100.00
36726;BME280;44936;52.086;5.150;2023-08-21T01:43:50;102489.09;;;18.22;100.00
36726;BME280;44936;52.086;5.150;2023-08-21T01:46:15;102471.34;;;18.26;100.00
36726;BME280;44936;52.086;5.150;2023-08-21T01:48:41;102443.91;;;18.25;100.00
36726;BME280;44936;52.086;5.150;2023-08-21T01:51:06;102391.72;;;18.10;100.00
36726;BME280;44936;52.086;5.150;2023-08-21T01:53:31;102374.06;;;18.03;100.00
36726;BME280;44936;52.086;5.150;2023-08-21T01:55:57;102423.59;;;18.15;100.00
36726;BME280;44936;52.086;5.150;2023-08-21T01:58:23;102429.84;;;17.94;100.00
36726;BME280;44936;52.086;5.150;2023-08-21T02:00:49;102491.78;;;18.07;100.00
36726;BME280;44936;52.086;5.150;2023-08-21T02:03:14;102490.91;;;17.94;100.00
36726;BME280;44936;52.086;5.150;2023-08-21T02:05:40;102518.31;;;18.05;100.00
36726;BME280;44936;52.086;5.150;2023-08-21T02:08:08;102513.84;;;18.20;100.00
36726;BME280;44936;52.086;5.150;2023-08-21T02:10:34;102488.22;;;18.14;100.00
36726;BME280;44936;52.086;5.150;2023-08-21T02:12:59;102485.56;;;18.13;100.00
36726;BME280;44936;52.086;5.150;2023-08-21T02:15:25;102482.03;;;18.04;100.00
36726;BME280;44936;52.086;5.150;2023-08-21T02:17:50;102481.19;;;17.95;100.00
36726;BME280;44936;52.086;5.150;2023-08-21T02:20:16;102514.78;;;18.08;100.00
36726;BME280;44936;52.086;5.150;2023-08-21T02:22:42;102493.56;;;17.83;100.00
36726;BME280;44936;52.086;5.150;2023-08-21T02:25:07;102500.66;;;17.86;100.00
36726;BME280;44936;52.086;5.150;2023-08-21T02:27:35;102484.72;;;17.81;100.00
36726;BME280;44936;52.086;5.150;2023-08-21T02:30:00;102525.41;;;17.97;100.00
36726;BME280;44936;52.086;5.150;2023-08-21T02:32:25;102518.34;;;17.86;100.00
36726;BME280;44936;52.086;5.150;2023-08-21T02:34:51;102534.28;;;17.78;100.00
36726;BME280;44936;52.086;5.150;2023-08-21T02:37:16;102551.94;;;17.68;100.00
36726;BME280;44936;52.086;5.150;2023-08-21T02:39:42;102567.84;;;17.64;100.00
36726;BME280;44936;52.086;5.150;2023-08-21T02:42:07;102590.84;;;17.59;100.00
36726;BME280;44936;52.086;5.150;2023-08-21T02:44:35;102626.22;;;17.65;100.00
36726;BME280;44936;52.086;5.150;2023-08-21T02:47:02;102610.28;;;17.50;100.00
36726;BME280;44936;52.086;5.150;2023-08-21T02:49:28;102628.91;;;17.74;100.00
36726;BME280;44936;52.086;5.150;2023-08-21T02:51:53;102586.47;;;17.82;100.00
36726;BME280;44936;52.086;5.150;2023-08-21T02:54:18;102525.44;;;17.70;100.00
36726;BME280;44936;52.086;5.150;2023-08-21T02:56:45;102505.94;;;17.75;100.00
36726;BME280;44936;52.086;5.150;2023-08-21T02:59:14;102471.47;;;17.77;100.00
36726;BME280;44936;52.086;5.150;2023-08-21T03:01:39;102433.41;;;17.63;100.00
36726;BME280;44936;52.086;5.150;2023-08-21T03:04:04;102461.72;;;17.77;100.00
36726;BME280;44936;52.086;5.150;2023-08-21T03:06:30;102435.19;;;17.68;100.00
36726;BME280;44936;52.086;5.150;2023-08-21T03:08:55;102434.31;;;17.85;100.00
36726;BME280;44936;52.086;5.150;2023-08-21T03:11:21;102398.03;;;17.80;100.00
36726;BME280;44936;52.086;5.150;2023-08-21T03:13:46;102385.63;;;17.79;100.00
36726;BME280;44936;52.086;5.150;2023-08-21T03:16:11;102387.41;;;17.82;100.00
36726;BME280;44936;52.086;5.150;2023-08-21T03:18:57;102353.81;;;17.73;100.00
36726;BME280;44936;52.086;5.150;2023-08-21T03:21:44;102339.63;;;17.87;100.00
36726;BME280;44936;52.086;5.150;2023-08-21T03:24:10;102323.72;;;17.80;100.00
36726;BME280;44936;52.086;5.150;2023-08-21T03:26:35;102302.50;;;17.74;100.00
36726;BME280;44936;52.086;5.150;2023-08-21T03:29:00;102308.69;;;17.73;100.00
36726;BME280;44936;52.086;5.150;2023-08-21T03:31:26;102323.72;;;17.74;100.00
36726;BME280;44936;52.086;5.150;2023-08-21T03:33:51;102327.28;;;17.70;100.00
36726;BME280;44936;52.086;5.150;2023-08-21T03:36:17;102311.34;;;17.64;100.00
36726;BME280;44936;52.086;5.150;2023-08-21T03:38:42;102314.88;;;17.75;100.00
36726;BME280;44936;52.086;5.150;2023-08-21T03:41:08;102314.84;;;17.83;100.00
36726;BME280;44936;52.086;5.150;2023-08-21T03:43:33;102290.97;;;17.86;100.00
36726;BME280;44936;52.086;5.150;2023-08-21T03:45:59;102283.00;;;17.81;100.00
36726;BME280;44936;52.086;5.150;2023-08-21T03:48:24;102315.69;;;17.91;100.00
36726;BME280;44936;52.086;5.150;2023-08-21T03:51:07;102309.53;;;17.88;100.00
36726;BME280;44936;52.086;5.150;2023-08-21T03:53:33;102323.75;;;17.76;100.00
36726;BME280;44936;52.086;5.150;2023-08-21T03:56:25;102353.78;;;17.79;100.00
36726;BME280;44936;52.086;5.150;2023-08-21T03:58:52;102375.03;;;17.79;100.00
36726;BME280;44936;52.086;5.150;2023-08-21T04:01:17;102352.94;;;17.61;100.00
36726;BME280;44936;52.086;5.150;2023-08-21T04:03:42;102383.00;;;17.78;100.00
36726;BME280;44936;52.086;5.150;2023-08-21T04:06:08;102361.75;;;17.75;100.00
36726;BME280;44936;52.086;5.150;2023-08-21T04:08:33;102374.13;;;17.80;100.00
36726;BME280;44936;52.086;5.150;2023-08-21T04:10:58;102387.38;;;17.90;100.00
36726;BME280;44936;52.086;5.150;2023-08-21T04:13:25;102375.84;;;17.92;100.00
36726;BME280;44936;52.086;5.150;2023-08-21T04:15:54;102350.25;;;17.80;100.00
36726;BME280;44936;52.086;5.150;2023-08-21T04:18:21;102372.34;;;17.87;100.00
36726;BME280;44936;52.086;5.150;2023-08-21T04:20:50;102370.59;;;17.80;100.00
36726;BME280;44936;52.086;5.150;2023-08-21T04:23:15;102375.00;;;17.64;100.00
36726;BME280;44936;52.086;5.150;2023-08-21T04:25:41;102398.03;;;17.68;100.00
36726;BME280;44936;52.086;5.150;2023-08-21T04:28:08;102378.56;;;17.60;100.00
36726;BME280;44936;52.086;5.150;2023-08-21T04:30:33;102392.72;;;17.77;100.00
36726;BME280;44936;52.086;5.150;2023-08-21T04:33:00;102355.56;;;17.65;100.00
36726;BME280;44936;52.086;5.150;2023-08-21T04:35:25;102352.03;;;17.69;100.00
36726;BME280;44936;52.086;5.150;2023-08-21T04:37:50;102355.56;;;17.77;100.00
36726;BME280;44936;52.086;5.150;2023-08-21T04:43:00;102361.78;;;17.70;100.00
36726;BME280;44936;52.086;5.150;2023-08-21T04:45:25;102379.44;;;17.65;100.00
36726;BME280;44936;52.086;5.150;2023-08-21T04:47:51;102401.56;;;17.67;100.00
36726;BME280;44936;52.086;5.150;2023-08-21T04:50:16;102398.91;;;17.55;100.00
36726;BME280;44936;52.086;5.150;2023-08-21T04:52:42;102390.94;;;17.55;100.00
36726;BME280;44936;52.086;5.150;2023-08-21T04:55:08;102396.25;;;17.53;100.00
36726;BME280;44936;52.086;5.150;2023-08-21T04:57:36;102387.41;;;17.47;100.00
36726;BME280;44936;52.086;5.150;2023-08-21T05:00:03;102400.69;;;17.51;100.00
36726;BME280;44936;52.086;5.150;2023-08-21T05:02:33;102383.88;;;17.40;100.00
36726;BME280;44936;52.086;5.150;2023-08-21T05:04:59;102390.06;;;17.38;100.00
36726;BME280;44936;52.086;5.150;2023-08-21T05:07:24;102432.53;;;17.59;100.00
36726;BME280;44936;52.086;5.150;2023-08-21T05:09:55;102417.50;;;17.35;100.00
36726;BME280;44936;52.086;5.150;2023-08-21T05:12:26;102444.00;;;17.47;100.00
36726;BME280;44936;52.086;5.150;2023-08-21T05:14:51;102428.97;;;17.46;100.00
36726;BME280;44936;52.086;5.150;2023-08-21T05:17:17;102396.25;;;17.49;100.00
36726;BME280;44936;52.086;5.150;2023-08-21T05:19:42;102362.66;;;17.45;100.00
36726;BME280;44936;52.086;5.150;2023-08-21T05:22:08;102356.50;;;17.43;100.00
36726;BME280;44936;52.086;5.150;2023-08-21T05:24:37;102362.66;;;17.48;100.00
36726;BME280;44936;52.086;5.150;2023-08-21T05:27:03;102385.66;;;17.58;100.00
36726;BME280;44936;52.086;5.150;2023-08-21T05:29:29;102391.84;;;17.62;100.00
36726;BME280;44936;52.086;5.150;2023-08-21T05:31:55;102392.69;;;17.65;100.00
36726;BME280;44936;52.086;5.150;2023-08-21T05:34:20;102395.38;;;17.77;100.00
36726;BME280;44936;52.086;5.150;2023-08-21T05:36:46;102374.13;;;17.82;100.00
36726;BME280;44936;52.086;5.150;2023-08-21T05:39:11;102316.63;;;17.82;100.00
36726;BME280;44936;52.086;5.150;2023-08-21T05:41:36;102275.91;;;17.90;100.00
36726;BME280;44936;52.086;5.150;2023-08-21T05:44:04;102223.63;;;17.99;100.00
36726;BME280;44936;52.086;5.150;2023-08-21T05:46:29;102165.28;;;17.92;100.00
36726;BME280;44936;52.086;5.150;2023-08-21T05:48:56;102109.59;;;17.82;100.00
36726;BME280;44936;52.086;5.150;2023-08-21T05:51:22;102108.59;;;18.00;100.00
36726;BME280;44936;52.086;5.150;2023-08-21T05:53:47;102061.75;;;17.95;100.00
36726;BME280;44936;52.086;5.150;2023-08-21T05:56:13;102053.59;;;18.16;100.00
36726;BME280;44936;52.086;5.150;2023-08-21T05:58:38;102000.50;;;18.15;100.00
36726;BME280;44936;52.086;5.150;2023-08-21T06:01:04;101990.66;;;18.24;100.00
36726;BME280;44936;52.086;5.150;2023-08-21T06:03:29;101952.56;;;18.27;100.00
36726;BME280;44936;52.086;5.150;2023-08-21T06:05:55;101947.06;;;18.44;100.00
36726;BME280;44936;52.086;5.150;2023-08-21T06:08:20;101937.28;;;18.47;100.00
36726;BME280;44936;52.086;5.150;2023-08-21T06:10:51;101906.44;;;18.35;100.00
36726;BME280;44936;52.086;5.150;2023-08-21T06:13:16;101927.47;;;18.52;100.00
36726;BME280;44936;52.086;5.150;2023-08-21T06:15:43;101912.50;;;18.45;100.00
36726;BME280;44936;52.086;5.150;2023-08-21T06:18:10;101909.06;;;18.38;100.00
36726;BME280;44936;52.086;5.150;2023-08-21T06:20:55;101916.13;;;18.39;100.00
36726;BME280;44936;52.086;5.150;2023-08-21T06:23:21;101946.13;;;18.49;100.00
36726;BME280;44936;52.086;5.150;2023-08-21T06:25:52;101946.19;;;18.42;100.00
36726;BME280;44936;52.086;5.150;2023-08-21T06:28:18;101961.16;;;18.50;100.00
36726;BME280;44936;52.086;5.150;2023-08-21T06:30:43;101962.97;;;18.48;100.00
36726;BME280;44936;52.086;5.150;2023-08-21T06:33:09;101968.19;;;18.56;100.00
36726;BME280;44936;52.086;5.150;2023-08-21T06:35:37;101962.00;;;18.55;100.00
36726;BME280;44936;52.086;5.150;2023-08-21T06:38:06;101952.22;;;18.57;100.00
36726;BME280;44936;52.086;5.150;2023-08-21T06:40:31;101961.78;;;18.72;100.00
36726;BME280;44936;52.086;5.150;2023-08-21T06:42:59;101966.09;;;18.81;100.00
36726;BME280;44936;52.086;5.150;2023-08-21T06:45:34;101975.06;;;18.75;100.00
36726;BME280;44936;52.086;5.150;2023-08-21T06:47:59;102040.56;;;18.78;100.00
36726;BME280;44936;52.086;5.150;2023-08-21T06:50:25;102146.59;;;19.05;100.00
36726;BME280;44936;52.086;5.150;2023-08-21T06:52:54;102218.25;;;19.19;100.00
36726;BME280;44936;52.086;5.150;2023-08-21T06:55:19;102268.78;;;19.20;100.00
36726;BME280;44936;52.086;5.150;2023-08-21T06:57:44;102357.31;;;19.33;100.00
36726;BME280;44936;52.086;5.150;2023-08-21T07:00:30;102414.16;;;19.24;100.00
36726;BME280;44936;52.086;5.150;2023-08-21T07:02:55;102500.94;;;19.44;100.00
36726;BME280;44936;52.086;5.150;2023-08-21T07:05:20;102598.47;;;19.46;100.00
36726;BME280;44936;52.086;5.150;2023-08-21T07:07:46;102714.72;;;19.44;100.00
36726;BME280;44936;52.086;5.150;2023-08-21T07:10:11;102791.84;;;19.53;100.00
36726;BME280;44936;52.086;5.150;2023-08-21T07:12:37;102854.84;;;19.55;100.00
36726;BME280;44936;52.086;5.150;2023-08-21T07:15:02;102873.50;;;19.44;100.00
36726;BME280;44936;52.086;5.150;2023-08-21T07:17:28;102934.72;;;19.44;100.00
36726;BME280;44936;52.086;5.150;2023-08-21T07:19:53;102980.81;;;19.47;100.00
36726;BME280;44936;52.086;5.150;2023-08-21T07:22:19;103007.44;;;19.53;100.00
36726;BME280;44936;52.086;5.150;2023-08-21T07:24:45;102998.63;;;19.62;100.00
36726;BME280;44936;52.086;5.150;2023-08-21T07:27:10;102994.13;;;19.52;100.00
36726;BME280;44936;52.086;5.150;2023-08-21T07:29:36;103060.72;;;19.69;100.00
36726;BME280;44936;52.086;5.150;2023-08-21T07:32:01;103095.34;;;19.72;100.00
36726;BME280;44936;52.086;5.150;2023-08-21T07:34:27;103125.53;;;19.72;100.00
36726;BME280;44936;52.086;5.150;2023-08-21T07:36:52;103116.63;;;19.58;100.00
36726;BME280;44936;52.086;5.150;2023-08-21T07:39:17;103115.75;;;19.64;100.00
36726;BME280;44936;52.086;5.150;2023-08-21T07:41:43;103129.09;;;19.80;100.00
36726;BME280;44936;52.086;5.150;2023-08-21T07:44:11;103119.31;;;19.84;100.00
36726;BME280;44936;52.086;5.150;2023-08-21T07:46:37;103094.47;;;19.88;100.00
36726;BME280;44936;52.086;5.150;2023-08-21T07:49:02;103097.13;;;19.91;100.00
36726;BME280;44936;52.086;5.150;2023-08-21T07:51:30;103112.22;;;19.92;100.00
36726;BME280;44936;52.086;5.150;2023-08-21T07:53:56;103049.19;;;19.79;100.00
36726;BME280;44936;52.086;5.150;2023-08-21T07:56:21;103051.84;;;19.97;100.00
36726;BME280;44936;52.086;5.150;2023-08-21T07:58:47;103014.59;;;19.79;100.00
36726;BME280;44936;52.086;5.150;2023-08-21T08:01:12;103071.38;;;19.89;100.00
36726;BME280;44936;52.086;5.150;2023-08-21T08:03:37;103062.50;;;19.97;100.00
36726;BME280;44936;52.086;5.150;2023-08-21T08:06:06;103102.44;;;20.02;100.00
36726;BME280;44936;52.086;5.150;2023-08-21T08:08:31;103081.16;;;19.88;100.00
36726;BME280;44936;52.086;5.150;2023-08-21T08:11:01;103083.81;;;19.97;100.00
36726;BME280;44936;52.086;5.150;2023-08-21T08:13:27;103127.31;;;20.05;100.00
36726;BME280;44936;52.086;5.150;2023-08-21T08:15:53;103123.75;;;19.99;100.00
36726;BME280;44936;52.086;5.150;2023-08-21T08:18:18;103130.84;;;19.94;100.00
36726;BME280;44936;52.086;5.150;2023-08-21T08:20:46;103134.41;;;20.03;100.00
36726;BME280;44936;52.086;5.150;2023-08-21T08:23:12;103153.94;;;20.08;100.00
36726;BME280;44936;52.086;5.150;2023-08-21T08:25:38;103151.28;;;20.12;100.00
36726;BME280;44936;52.086;5.150;2023-08-21T08:28:03;103138.84;;;20.14;100.00
36726;BME280;44936;52.086;5.150;2023-08-21T08:30:29;103145.97;;;20.15;100.00
36726;BME280;44936;52.086;5.150;2023-08-21T08:32:54;103082.91;;;19.95;100.00
36726;BME280;44936;52.086;5.150;2023-08-21T08:35:19;103062.50;;;19.88;100.00
36726;BME280;44936;52.086;5.150;2023-08-21T08:37:45;103071.38;;;20.05;100.00
36726;BME280;44936;52.086;5.150;2023-08-21T08:40:11;103116.66;;;20.10;100.00
36726;BME280;44936;52.086;5.150;2023-08-21T08:42:36;103118.44;;;19.91;100.00
36726;BME280;44936;52.086;5.150;2023-08-21T08:45:04;103202.78;;;20.29;100.00
36726;BME280;44936;52.086;5.150;2023-08-21T08:47:33;103181.47;;;20.29;100.00
36726;BME280;44936;52.086;5.150;2023-08-21T08:50:02;103167.28;;;20.15;100.00
36726;BME280;44936;52.086;5.150;2023-08-21T08:52:38;103178.81;;;20.30;100.00
36726;BME280;44936;52.086;5.150;2023-08-21T08:55:04;103142.41;;;20.34;100.00
36726;BME280;44936;52.086;5.150;2023-08-21T08:57:32;103124.63;;;20.45;100.00
36726;BME280;44936;52.086;5.150;2023-08-21T08:59:57;103082.88;;;20.23;100.00
36726;BME280;44936;52.086;5.150;2023-08-21T09:02:24;103114.84;;;20.33;100.00
36726;BME280;44936;52.086;5.150;2023-08-21T09:04:51;103135.28;;;20.36;100.00
36726;BME280;44936;52.086;5.150;2023-08-21T09:07:17;103156.63;;;20.45;100.00
36726;BME280;44936;52.086;5.150;2023-08-21T09:09:48;103196.59;;;20.54;100.00
36726;BME280;44936;52.086;5.150;2023-08-21T09:12:34;103201.03;;;20.55;100.00
36726;BME280;44936;52.086;5.150;2023-08-21T09:14:59;103212.59;;;20.62;100.00
36726;BME280;44936;52.086;5.150;2023-08-21T09:17:25;103244.59;;;20.79;100.00
36726;BME280;44936;52.086;5.150;2023-08-21T09:19:51;103192.16;;;20.62;100.00
36726;BME280;44936;52.086;5.150;2023-08-21T09:22:18;103191.25;;;20.65;100.00
36726;BME280;44936;52.086;5.150;2023-08-21T09:25:05;103206.38;;;20.63;100.00
36726;BME280;44936;52.086;5.150;2023-08-21T09:27:52;103222.34;;;20.80;100.00
36726;BME280;44936;52.086;5.150;2023-08-21T09:30:51;103281.03;;;20.89;100.00
36726;BME280;44936;52.086;5.150;2023-08-21T09:33:21;103239.25;;;20.80;100.00
36726;BME280;44936;52.086;5.150;2023-08-21T09:36:07;103233.88;;;20.97;100.00
36726;BME280;44936;52.086;5.150;2023-08-21T09:38:34;103243.66;;;20.98;100.00
36726;BME280;44936;52.086;5.150;2023-08-21T09:41:03;103238.28;;;21.07;100.00
36726;BME280;44936;52.086;5.150;2023-08-21T09:43:28;103196.50;;;21.03;100.00
36726;BME280;44936;52.086;5.150;2023-08-21T09:45:56;103149.41;;;20.90;100.00
36726;BME280;44936;52.086;5.150;2023-08-21T09:48:22;103155.59;;;21.03;100.00
36726;BME280;44936;52.086;5.150;2023-08-21T09:50:52;103184.88;;;21.23;100.00
36726;BME280;44936;52.086;5.150;2023-08-21T09:53:17;103216.88;;;21.29;100.00
36726;BME280;44936;52.086;5.150;2023-08-21T09:55:43;103211.56;;;21.27;100.00
36726;BME280;44936;52.086;5.150;2023-08-21T09:58:09;103213.31;;;21.39;100.00
36726;BME280;44936;52.086;5.150;2023-08-21T10:00:38;103212.38;;;21.47;100.00
36726;BME280;44936;52.086;5.150;2023-08-21T10:03:24;103219.47;;;21.52;100.00
36726;BME280;44936;52.086;5.150;2023-08-21T10:05:50;103234.59;;;21.54;100.00
36726;BME280;44936;52.086;5.150;2023-08-21T10:08:22;103234.59;;;21.54;100.00
36726;BME280;44936;52.086;5.150;2023-08-21T10:10:48;103168.78;;;21.44;100.00
36726;BME280;44936;52.086;5.150;2023-08-21T10:13:14;103188.34;;;21.49;100.00
36726;BME280;44936;52.086;5.150;2023-08-21T10:15:40;103192.75;;;21.53;100.00
36726;BME280;44936;52.086;5.150;2023-08-21T10:18:29;103283.56;;;21.45;100.00
36726;BME280;44936;52.086;5.150;2023-08-21T10:20:54;103194.53;;;21.54;100.00
36726;BME280;44936;52.086;5.150;2023-08-21T10:23:30;103230.03;;;21.74;100.00
36726;BME280;44936;52.086;5.150;2023-08-21T10:26:00;103201.63;;;21.61;100.00
36726;BME280;44936;52.086;5.150;2023-08-21T10:28:49;103241.56;;;21.83;100.00
36726;BME280;44936;52.086;5.150;2023-08-21T10:31:38;103201.50;;;21.84;100.00
36726;BME280;44936;52.086;5.150;2023-08-21T10:34:06;103183.63;;;21.89;100.00
36726;BME280;44936;52.086;5.150;2023-08-21T10:39:18;103167.50;;;22.03;100.00
36726;BME280;44936;52.086;5.150;2023-08-21T10:47:31;103185.22;;;22.16;100.00
36726;BME280;44936;52.086;5.150;2023-08-21T10:50:08;103212.72;;;22.33;100.00
36726;BME280;44936;52.086;5.150;2023-08-21T10:52:41;103154.88;;;22.26;100.00
36726;BME280;44936;52.086;5.150;2023-08-21T10:55:26;103144.16;;;22.25;100.00
36726;BME280;44936;52.086;5.150;2023-08-21T11:01:03;103225.16;;;22.38;100.00
36726;BME280;44936;52.086;5.150;2023-08-21T11:03:30;103168.22;;;22.25;100.00
36726;BME280;44936;52.086;5.150;2023-08-21T11:06:09;103206.47;;;22.36;100.00
36726;BME280;44936;52.086;5.150;2023-08-21T11:08:35;103232.22;;;22.48;100.00
36726;BME280;44936;52.086;5.150;2023-08-21T11:11:04;103232.25;;;22.45;100.00
36726;BME280;44936;52.086;5.150;2023-08-21T11:13:30;103232.22;;;22.48;100.00
36726;BME280;44936;52.086;5.150;2023-08-21T11:16:00;103210.84;;;22.45;100.00
36726;BME280;44936;52.086;5.150;2023-08-21T11:18:35;103229.44;;;22.57;100.00
36726;BME280;44936;52.086;5.150;2023-08-21T11:21:08;103221.34;;;22.66;100.00
36726;BME280;44936;52.086;5.150;2023-08-21T11:23:36;103217.72;;;22.73;100.00
36726;BME280;44936;52.086;5.150;2023-08-21T11:26:03;103214.09;;;22.77;100.00
36726;BME280;44936;52.086;5.150;2023-08-21T11:28:30;103184.44;;;23.00;100.00
36726;BME280;44936;52.086;5.150;2023-08-21T11:30:56;103194.06;;;23.16;100.00
36726;BME280;44936;52.086;5.150;2023-08-21T11:33:22;103220.75;;;23.21;100.00
36726;BME280;44936;52.086;5.150;2023-08-21T11:35:48;103140.50;;;23.18;100.00
36726;BME280;44936;52.086;5.150;2023-08-21T11:38:21;103224.00;;;23.48;100.00
36726;BME280;44936;52.086;5.150;2023-08-21T11:40:58;103200.63;;;23.62;100.00
36726;BME280;44936;52.086;5.150;2023-08-21T11:43:43;103195.13;;;23.72;100.00
36726;BME280;44936;52.086;5.150;2023-08-21T11:46:09;103189.59;;;23.83;100.00
36726;BME280;44936;52.086;5.150;2023-08-21T11:48:38;103223.44;;;23.90;100.00
36726;BME280;44936;52.086;5.150;2023-08-21T11:54:23;103151.75;;;24.05;100.00
36726;BME280;44936;52.086;5.150;2023-08-21T11:56:48;103146.31;;;24.08;100.00
36726;BME280;44936;52.086;5.150;2023-08-21T11:59:23;103133.88;;;24.04;100.00
36726;BME280;44936;52.086;5.150;2023-08-21T12:01:51;103145.75;;;23.89;100.00
36726;BME280;44936;52.086;5.150;2023-08-21T12:04:17;103084.25;;;23.80;100.00
36726;BME280;44936;52.086;5.150;2023-08-21T12:07:03;103148.44;;;23.87;100.00
36726;BME280;44936;52.086;5.150;2023-08-21T12:09:28;103195.03;;;23.79;100.00
36726;BME280;44936;52.086;5.150;2023-08-21T12:11:55;103222.75;;;23.74;100.00
36726;BME280;44936;52.086;5.150;2023-08-21T12:14:22;103134.47;;;23.65;100.00
36726;BME280;44936;52.086;5.150;2023-08-21T12:16:48;103210.38;;;23.69;100.00
36726;BME280;44936;52.086;5.150;2023-08-21T12:19:13;103150.00;;;23.42;100.00
36726;BME280;44936;52.086;5.150;2023-08-21T12:21:39;103174.81;;;23.55;100.00
36726;BME280;44936;52.086;5.150;2023-08-21T12:24:05;103122.81;;;23.69;100.00
36726;BME280;44936;52.086;5.150;2023-08-21T12:26:32;103076.56;;;23.55;100.00
36726;BME280;44936;52.086;5.150;2023-08-21T12:29:00;103123.91;;;23.55;100.00
36726;BME280;44936;52.086;5.150;2023-08-21T12:31:26;103172.38;;;23.36;100.00
36726;BME280;44936;52.086;5.150;2023-08-21T12:33:51;103172.19;;;23.49;100.00
36726;BME280;44936;52.086;5.150;2023-08-21T12:36:17;103199.88;;;23.51;100.00
36726;BME280;44936;52.086;5.150;2023-08-21T12:38:42;103182.06;;;23.46;100.00
36726;BME280;44936;52.086;5.150;2023-08-21T12:41:07;103111.56;;;23.44;100.00
36726;BME280;44936;52.086;5.150;2023-08-21T12:43:33;103151.78;;;23.41;100.00
36726;BME280;44936;52.086;5.150;2023-08-21T12:45:58;103167.16;;;23.27;100.00
36726;BME280;44936;52.086;5.150;2023-08-21T12:48:24;103195.53;;;23.39;100.00
36726;BME280;44936;52.086;5.150;2023-08-21T12:50:49;103167.06;;;23.33;100.00
36726;BME280;44936;52.086;5.150;2023-08-21T12:53:34;103199.09;;;23.42;100.00
36726;BME280;44936;52.086;5.150;2023-08-21T12:56:00;103192.84;;;23.40;100.00
36726;BME280;44936;52.086;5.150;2023-08-21T12:58:25;103147.25;;;23.45;100.00
36726;BME280;44936;52.086;5.150;2023-08-21T13:00:52;103169.53;;;23.47;100.00
36726;BME280;44936;52.086;5.150;2023-08-21T13:03:18;103153.56;;;23.41;100.00
36726;BME280;44936;52.086;5.150;2023-08-21T13:05:52;103176.66;;;23.51;100.00